sensor_id;sensor_type;location;lat;lon;timestamp;pressure;altitude;pressure_sealevel;temperature;humidity
51468;BME280;37545;45.302;-122.946;2023-04-15T00:00:49;100971.44;;;17.69;31.21
51468;BME280;37545;45.302;-122.946;2023-04-15T00:03:18;100966.19;;;17.70;31.25
51468;BME280;37545;45.302;-122.946;2023-04-15T00:05:46;100959.22;;;17.71;32.07
51468;BME280;37545;45.302;-122.946;2023-04-15T00:08:15;100961.03;;;17.81;33.36
51468;BME280;37545;45.302;-122.946;2023-04-15T00:10:44;100960.19;;;17.91;33.32
51468;BME280;37545;45.302;-122.946;2023-04-15T00:13:15;100957.56;;;17.97;32.25
51468;BME280;37545;45.302;-122.946;2023-04-15T00:15:44;100959.34;;;17.98;31.64
51468;BME280;37545;45.302;-122.946;2023-04-15T00:18:12;100966.19;;;17.70;31.57
51468;BME280;37545;45.302;-122.946;2023-04-15T00:20:41;100959.19;;;17.57;31.59
51468;BME280;37545;45.302;-122.946;2023-04-15T00:23:09;100951.28;;;17.46;31.72
51468;BME280;37545;45.302;-122.946;2023-04-15T00:25:38;100953.84;;;17.37;32.73
51468;BME280;37545;45.302;-122.946;2023-04-15T00:28:07;100956.53;;;17.48;32.53
51468;BME280;37545;45.302;-122.946;2023-04-15T00:30:38;100961.81;;;17.60;32.77
51468;BME280;37545;45.302;-122.946;2023-04-15T00:33:08;100960.00;;;17.54;32.10
51468;BME280;37545;45.302;-122.946;2023-04-15T00:35:37;100957.34;;;17.39;31.95
51468;BME280;37545;45.302;-122.946;2023-04-15T00:38:06;100959.09;;;17.37;32.16
51468;BME280;37545;45.302;-122.946;2023-04-15T00:40:35;100954.75;;;17.47;32.73
51468;BME280;37545;45.302;-122.946;2023-04-15T00:43:04;100955.69;;;17.58;32.84
51468;BME280;37545;45.302;-122.946;2023-04-15T00:45:32;100951.38;;;17.66;31.47
51468;BME280;37545;45.302;-122.946;2023-04-15T00:48:03;100948.75;;;17.72;32.18
51468;BME280;37545;45.302;-122.946;2023-04-15T00:50:33;100959.22;;;17.69;31.06
51468;BME280;37545;45.302;-122.946;2023-04-15T00:53:01;100953.97;;;17.62;30.48
51468;BME280;37545;45.302;-122.946;2023-04-15T00:55:30;100956.53;;;17.51;31.20
51468;BME280;37545;45.302;-122.946;2023-04-15T00:57:59;100951.28;;;17.48;31.10
51468;BME280;37545;45.302;-122.946;2023-04-15T01:00:28;100946.88;;;17.41;30.59
51468;BME280;37545;45.302;-122.946;2023-04-15T01:02:57;100945.16;;;17.40;30.57
51468;BME280;37545;45.302;-122.946;2023-04-15T01:05:27;100949.41;;;17.24;31.60
51468;BME280;37545;45.302;-122.946;2023-04-15T01:07:57;100950.28;;;17.21;31.98
51468;BME280;37545;45.302;-122.946;2023-04-15T01:10:26;100948.53;;;17.22;32.29
51468;BME280;37545;45.302;-122.946;2023-04-15T01:12:56;100944.13;;;17.13;31.81
51468;BME280;37545;45.302;-122.946;2023-04-15T01:15:25;100942.38;;;17.07;31.66
51468;BME280;37545;45.302;-122.946;2023-04-15T01:17:54;100935.38;;;17.03;31.60
51468;BME280;37545;45.302;-122.946;2023-04-15T01:20:26;100935.34;;;16.99;31.86
51468;BME280;37545;45.302;-122.946;2023-04-15T01:22:56;100937.00;;;16.87;32.16
51468;BME280;37545;45.302;-122.946;2023-04-15T01:25:31;100935.19;;;16.77;32.33
51468;BME280;37545;45.302;-122.946;2023-04-15T01:28:02;100938.72;;;16.79;32.56
51468;BME280;37545;45.302;-122.946;2023-04-15T01:30:47;100942.22;;;16.84;33.40
51468;BME280;37545;45.302;-122.946;2023-04-15T01:33:16;100941.34;;;16.85;32.94
51468;BME280;37545;45.302;-122.946;2023-04-15T01:35:45;100945.72;;;16.86;32.41
51468;BME280;37545;45.302;-122.946;2023-04-15T01:38:14;100943.97;;;16.87;32.25
51468;BME280;37545;45.302;-122.946;2023-04-15T01:40:44;100932.59;;;16.80;32.80
51468;BME280;37545;45.302;-122.946;2023-04-15T01:43:13;100939.50;;;16.75;32.64
51468;BME280;37545;45.302;-122.946;2023-04-15T01:45:42;100928.19;;;16.73;32.51
51468;BME280;37545;45.302;-122.946;2023-04-15T01:48:11;100933.38;;;16.70;33.23
51468;BME280;37545;45.302;-122.946;2023-04-15T01:50:39;100927.25;;;16.66;32.32
51468;BME280;37545;45.302;-122.946;2023-04-15T01:53:08;100932.38;;;16.52;32.49
51468;BME280;37545;45.302;-122.946;2023-04-15T01:55:37;100931.38;;;16.37;31.73
51468;BME280;37545;45.302;-122.946;2023-04-15T01:58:08;100932.16;;;16.28;32.45
51468;BME280;37545;45.302;-122.946;2023-04-15T02:00:36;100922.53;;;16.21;33.48
51468;BME280;37545;45.302;-122.946;2023-04-15T02:03:05;100935.56;;;16.19;34.00
51468;BME280;37545;45.302;-122.946;2023-04-15T02:05:33;100932.06;;;16.19;35.98
51468;BME280;37545;45.302;-122.946;2023-04-15T02:08:02;100932.09;;;16.17;35.40
51468;BME280;37545;45.302;-122.946;2023-04-15T02:10:31;100925.06;;;16.11;35.82
51468;BME280;37545;45.302;-122.946;2023-04-15T02:13:00;100927.59;;;16.05;35.52
51468;BME280;37545;45.302;-122.946;2023-04-15T02:15:30;100930.16;;;15.99;35.53
51468;BME280;37545;45.302;-122.946;2023-04-15T02:17:59;100931.88;;;15.97;35.47
51468;BME280;37545;45.302;-122.946;2023-04-15T02:20:28;100926.63;;;15.93;34.52
51468;BME280;37545;45.302;-122.946;2023-04-15T02:22:57;100929.19;;;15.88;35.19
51468;BME280;37545;45.302;-122.946;2023-04-15T02:25:26;100933.44;;;15.81;34.54
51468;BME280;37545;45.302;-122.946;2023-04-15T02:27:57;100935.19;;;15.81;34.43
51468;BME280;37545;45.302;-122.946;2023-04-15T02:30:26;100937.75;;;15.78;34.46
51468;BME280;37545;45.302;-122.946;2023-04-15T02:32:56;100942.00;;;15.71;34.41
51468;BME280;37545;45.302;-122.946;2023-04-15T02:35:25;100943.63;;;15.64;35.48
51468;BME280;37545;45.302;-122.946;2023-04-15T02:37:54;100947.06;;;15.59;36.41
51468;BME280;37545;45.302;-122.946;2023-04-15T02:40:22;100946.13;;;15.52;36.75
51468;BME280;37545;45.302;-122.946;2023-04-15T02:42:51;100950.31;;;15.39;35.99
51468;BME280;37545;45.302;-122.946;2023-04-15T02:45:20;100952.75;;;15.27;38.09
51468;BME280;37545;45.302;-122.946;2023-04-15T02:47:51;100949.06;;;15.11;38.32
51468;BME280;37545;45.302;-122.946;2023-04-15T02:50:21;100958.50;;;15.03;39.33
51468;BME280;37545;45.302;-122.946;2023-04-15T02:52:51;100955.66;;;14.87;41.16
51468;BME280;37545;45.302;-122.946;2023-04-15T02:55:20;100960.81;;;14.83;42.39
51468;BME280;37545;45.302;-122.946;2023-04-15T02:57:48;100950.31;;;14.78;39.70
51468;BME280;37545;45.302;-122.946;2023-04-15T03:00:17;100957.19;;;14.73;39.70
51468;BME280;37545;45.302;-122.946;2023-04-15T03:02:46;100965.78;;;14.68;41.13
51468;BME280;37545;45.302;-122.946;2023-04-15T03:05:17;100967.41;;;14.61;39.74
51468;BME280;37545;45.302;-122.946;2023-04-15T03:07:47;100976.81;;;14.54;42.78
51468;BME280;37545;45.302;-122.946;2023-04-15T03:10:16;100981.03;;;14.48;42.56
51468;BME280;37545;45.302;-122.946;2023-04-15T03:12:45;100978.25;;;14.37;42.05
51468;BME280;37545;45.302;-122.946;2023-04-15T03:15:14;100999.81;;;14.31;42.04
51468;BME280;37545;45.302;-122.946;2023-04-15T03:17:43;101003.16;;;14.24;41.87
51468;BME280;37545;45.302;-122.946;2023-04-15T03:20:11;100996.09;;;14.17;41.82
51468;BME280;37545;45.302;-122.946;2023-04-15T03:22:49;101006.47;;;14.14;43.56
51468;BME280;37545;45.302;-122.946;2023-04-15T03:25:18;101009.84;;;14.10;44.31
51468;BME280;37545;45.302;-122.946;2023-04-15T03:27:47;101011.53;;;14.08;43.66
51468;BME280;37545;45.302;-122.946;2023-04-15T03:30:16;101017.59;;;14.07;45.99
51468;BME280;37545;45.302;-122.946;2023-04-15T03:32:44;101023.56;;;14.01;46.62
51468;BME280;37545;45.302;-122.946;2023-04-15T03:35:13;101029.44;;;13.92;48.13
51468;BME280;37545;45.302;-122.946;2023-04-15T03:37:42;101037.06;;;13.83;47.01
51468;BME280;37545;45.302;-122.946;2023-04-15T03:40:13;101036.03;;;13.75;47.90
51468;BME280;37545;45.302;-122.946;2023-04-15T03:42:42;101037.53;;;13.65;47.89
51468;BME280;37545;45.302;-122.946;2023-04-15T03:45:11;101040.03;;;13.60;48.00
51468;BME280;37545;45.302;-122.946;2023-04-15T03:47:39;101042.63;;;13.59;49.64
51468;BME280;37545;45.302;-122.946;2023-04-15T03:50:09;101048.50;;;13.50;50.28
51468;BME280;37545;45.302;-122.946;2023-04-15T03:52:38;101048.91;;;13.31;49.75
51468;BME280;37545;45.302;-122.946;2023-04-15T03:55:07;101057.22;;;13.16;50.99
51468;BME280;37545;45.302;-122.946;2023-04-15T03:57:37;101063.75;;;13.00;50.38
51468;BME280;37545;45.302;-122.946;2023-04-15T04:00:08;101066.09;;;12.89;50.75
51468;BME280;37545;45.302;-122.946;2023-04-15T04:02:37;101074.63;;;12.84;52.21
51468;BME280;37545;45.302;-122.946;2023-04-15T04:05:06;101061.41;;;12.74;52.01
51468;BME280;37545;45.302;-122.946;2023-04-15T04:07:35;101066.28;;;12.62;53.60
51468;BME280;37545;45.302;-122.946;2023-04-15T04:10:04;101069.41;;;12.50;53.50
51468;BME280;37545;45.302;-122.946;2023-04-15T04:12:34;101076.06;;;12.41;53.83
51468;BME280;37545;45.302;-122.946;2023-04-15T04:15:04;101079.28;;;12.32;54.49
51468;BME280;37545;45.302;-122.946;2023-04-15T04:17:34;101079.16;;;12.26;53.66
51468;BME280;37545;45.302;-122.946;2023-04-15T04:20:03;101081.69;;;12.24;53.99
51468;BME280;37545;45.302;-122.946;2023-04-15T04:22:37;101092.00;;;12.23;54.28
51468;BME280;37545;45.302;-122.946;2023-04-15T04:25:07;101091.88;;;12.18;54.59
51468;BME280;37545;45.302;-122.946;2023-04-15T04:27:36;101102.19;;;12.15;55.00
51468;BME280;37545;45.302;-122.946;2023-04-15T04:30:07;101105.50;;;12.11;54.59
51468;BME280;37545;45.302;-122.946;2023-04-15T04:32:36;101102.72;;;12.05;55.50
51468;BME280;37545;45.302;-122.946;2023-04-15T04:35:05;101106.09;;;12.01;56.85
51468;BME280;37545;45.302;-122.946;2023-04-15T04:37:34;101106.75;;;11.93;56.75
51468;BME280;37545;45.302;-122.946;2023-04-15T04:40:03;101122.13;;;11.87;56.81
51468;BME280;37545;45.302;-122.946;2023-04-15T04:42:32;101110.66;;;11.81;59.92
51468;BME280;37545;45.302;-122.946;2023-04-15T04:45:01;101114.78;;;11.74;59.79
51468;BME280;37545;45.302;-122.946;2023-04-15T04:47:31;101113.75;;;11.69;59.11
51468;BME280;37545;45.302;-122.946;2023-04-15T04:50:00;101115.22;;;11.61;58.02
51468;BME280;37545;45.302;-122.946;2023-04-15T04:52:35;101121.91;;;11.54;59.83
51468;BME280;37545;45.302;-122.946;2023-04-15T04:55:05;101117.38;;;11.47;59.33
51468;BME280;37545;45.302;-122.946;2023-04-15T04:57:34;101120.66;;;11.41;60.27
51468;BME280;37545;45.302;-122.946;2023-04-15T05:00:03;101118.81;;;11.37;62.96
51468;BME280;37545;45.302;-122.946;2023-04-15T05:02:35;101127.22;;;11.30;60.97
51468;BME280;37545;45.302;-122.946;2023-04-15T05:05:04;101130.53;;;11.26;61.91
51468;BME280;37545;45.302;-122.946;2023-04-15T05:07:34;101124.31;;;11.21;62.13
51468;BME280;37545;45.302;-122.946;2023-04-15T05:10:02;101130.13;;;11.14;62.79
51468;BME280;37545;45.302;-122.946;2023-04-15T05:12:31;101143.81;;;11.09;61.49
51468;BME280;37545;45.302;-122.946;2023-04-15T05:15:00;101137.53;;;11.03;61.32
51468;BME280;37545;45.302;-122.946;2023-04-15T05:17:29;101132.16;;;10.97;60.71
51468;BME280;37545;45.302;-122.946;2023-04-15T05:20:02;101128.28;;;10.84;62.05
51468;BME280;37545;45.302;-122.946;2023-04-15T05:22:31;101126.31;;;10.77;63.19
51468;BME280;37545;45.302;-122.946;2023-04-15T05:24:59;101128.78;;;10.74;64.56
51468;BME280;37545;45.302;-122.946;2023-04-15T05:27:28;101132.06;;;10.69;63.92
51468;BME280;37545;45.302;-122.946;2023-04-15T05:29:57;101124.13;;;10.63;63.84
51468;BME280;37545;45.302;-122.946;2023-04-15T05:32:25;101128.34;;;10.61;63.52
51468;BME280;37545;45.302;-122.946;2023-04-15T05:34:54;101126.47;;;10.57;63.16
51468;BME280;37545;45.302;-122.946;2023-04-15T05:37:24;101128.13;;;10.55;63.30
51468;BME280;37545;45.302;-122.946;2023-04-15T05:39:53;101120.19;;;10.51;63.69
51468;BME280;37545;45.302;-122.946;2023-04-15T05:42:22;101120.91;;;10.46;63.75
51468;BME280;37545;45.302;-122.946;2023-04-15T05:44:50;101125.03;;;10.41;64.14
51468;BME280;37545;45.302;-122.946;2023-04-15T05:47:19;101119.72;;;10.37;65.01
51468;BME280;37545;45.302;-122.946;2023-04-15T05:49:48;101126.50;;;10.33;65.34
51468;BME280;37545;45.302;-122.946;2023-04-15T05:52:16;101131.53;;;10.30;65.67
51468;BME280;37545;45.302;-122.946;2023-04-15T05:54:47;101116.75;;;10.27;66.11
51468;BME280;37545;45.302;-122.946;2023-04-15T05:57:15;101123.53;;;10.24;65.81
51468;BME280;37545;45.302;-122.946;2023-04-15T05:59:44;101126.88;;;10.21;66.01
51468;BME280;37545;45.302;-122.946;2023-04-15T06:02:13;101121.59;;;10.18;66.67
51468;BME280;37545;45.302;-122.946;2023-04-15T06:04:41;101118.06;;;10.16;66.23
51468;BME280;37545;45.302;-122.946;2023-04-15T06:07:10;101117.97;;;10.13;66.60
51468;BME280;37545;45.302;-122.946;2023-04-15T06:09:39;101117.88;;;10.10;67.23
51468;BME280;37545;45.302;-122.946;2023-04-15T06:12:09;101110.81;;;10.06;67.29
51468;BME280;37545;45.302;-122.946;2023-04-15T06:14:38;101111.44;;;10.00;67.90
51468;BME280;37545;45.302;-122.946;2023-04-15T06:17:07;101107.91;;;9.98;67.89
51468;BME280;37545;45.302;-122.946;2023-04-15T06:19:36;101108.69;;;9.96;69.32
51468;BME280;37545;45.302;-122.946;2023-04-15T06:22:05;101103.34;;;9.91;68.21
51468;BME280;37545;45.302;-122.946;2023-04-15T06:24:34;101104.78;;;9.83;70.65
51468;BME280;37545;45.302;-122.946;2023-04-15T06:27:03;101106.94;;;9.72;72.45
51468;BME280;37545;45.302;-122.946;2023-04-15T06:29:34;101114.09;;;9.57;72.40
51468;BME280;37545;45.302;-122.946;2023-04-15T06:32:03;101113.72;;;9.48;72.19
51468;BME280;37545;45.302;-122.946;2023-04-15T06:34:32;101119.34;;;9.37;72.09
51468;BME280;37545;45.302;-122.946;2023-04-15T06:37:00;101129.31;;;9.28;73.20
51468;BME280;37545;45.302;-122.946;2023-04-15T06:39:29;101127.50;;;9.26;72.96
51468;BME280;37545;45.302;-122.946;2023-04-15T06:41:58;101134.34;;;9.25;73.08
51468;BME280;37545;45.302;-122.946;2023-04-15T06:44:26;101140.41;;;9.26;72.43
51468;BME280;37545;45.302;-122.946;2023-04-15T06:46:57;101141.97;;;9.22;73.43
51468;BME280;37545;45.302;-122.946;2023-04-15T06:49:25;101141.78;;;9.17;72.88
51468;BME280;37545;45.302;-122.946;2023-04-15T06:51:54;101147.69;;;9.15;73.72
51468;BME280;37545;45.302;-122.946;2023-04-15T06:54:23;101151.91;;;9.13;73.75
51468;BME280;37545;45.302;-122.946;2023-04-15T06:56:51;101144.84;;;9.09;73.62
51468;BME280;37545;45.302;-122.946;2023-04-15T06:59:20;101152.47;;;9.06;73.16
51468;BME280;37545;45.302;-122.946;2023-04-15T07:01:49;101152.38;;;9.02;74.43
51468;BME280;37545;45.302;-122.946;2023-04-15T07:04:19;101157.38;;;8.99;73.92
51468;BME280;37545;45.302;-122.946;2023-04-15T07:06:48;101162.41;;;8.96;74.66
51468;BME280;37545;45.302;-122.946;2023-04-15T07:09:16;101170.97;;;8.95;75.69
51468;BME280;37545;45.302;-122.946;2023-04-15T07:11:45;101173.41;;;8.92;75.80
51468;BME280;37545;45.302;-122.946;2023-04-15T07:14:14;101171.66;;;8.91;76.55
51468;BME280;37545;45.302;-122.946;2023-04-15T07:16:42;101177.63;;;8.90;76.53
51468;BME280;37545;45.302;-122.946;2023-04-15T07:19:11;101186.97;;;8.87;76.37
51468;BME280;37545;45.302;-122.946;2023-04-15T07:21:41;101184.31;;;8.85;77.00
51468;BME280;37545;45.302;-122.946;2023-04-15T07:24:10;101188.50;;;8.83;75.78
51468;BME280;37545;45.302;-122.946;2023-04-15T07:26:42;101190.00;;;8.78;76.62
51468;BME280;37545;45.302;-122.946;2023-04-15T07:29:10;101203.59;;;8.74;77.06
51468;BME280;37545;45.302;-122.946;2023-04-15T07:31:39;101198.16;;;8.68;77.15
51468;BME280;37545;45.302;-122.946;2023-04-15T07:34:08;101200.41;;;8.60;77.84
51468;BME280;37545;45.302;-122.946;2023-04-15T07:36:37;101191.41;;;8.52;79.07
51468;BME280;37545;45.302;-122.946;2023-04-15T07:39:07;101189.38;;;8.45;79.09
51468;BME280;37545;45.302;-122.946;2023-04-15T07:41:36;101201.53;;;8.47;79.10
51468;BME280;37545;45.302;-122.946;2023-04-15T07:44:05;101197.19;;;8.46;79.71
51468;BME280;37545;45.302;-122.946;2023-04-15T07:46:33;101191.91;;;8.43;78.94
51468;BME280;37545;45.302;-122.946;2023-04-15T07:49:02;101201.09;;;8.38;79.80
51468;BME280;37545;45.302;-122.946;2023-04-15T07:51:31;101199.03;;;8.31;81.72
51468;BME280;37545;45.302;-122.946;2023-04-15T07:54:00;101201.38;;;8.25;83.23
51468;BME280;37545;45.302;-122.946;2023-04-15T07:56:31;101209.59;;;8.17;84.06
51468;BME280;37545;45.302;-122.946;2023-04-15T07:59:00;101214.63;;;8.14;83.35
51468;BME280;37545;45.302;-122.946;2023-04-15T08:01:30;101215.38;;;8.12;81.39
51468;BME280;37545;45.302;-122.946;2023-04-15T08:03:59;101215.28;;;8.10;81.11
51468;BME280;37545;45.302;-122.946;2023-04-15T08:06:28;101214.31;;;8.08;81.92
51468;BME280;37545;45.302;-122.946;2023-04-15T08:08:57;101209.16;;;8.08;81.47
51468;BME280;37545;45.302;-122.946;2023-04-15T08:11:26;101206.47;;;8.05;81.16
51468;BME280;37545;45.302;-122.946;2023-04-15T08:13:57;101206.53;;;8.07;81.79
51468;BME280;37545;45.302;-122.946;2023-04-15T08:16:26;101203.97;;;8.07;81.98
51468;BME280;37545;45.302;-122.946;2023-04-15T08:18:55;101200.47;;;8.06;81.97
51468;BME280;37545;45.302;-122.946;2023-04-15T08:21:24;101203.81;;;8.04;82.76
51468;BME280;37545;45.302;-122.946;2023-04-15T08:23:53;101197.63;;;8.00;81.08
51468;BME280;37545;45.302;-122.946;2023-04-15T08:26:22;101207.50;;;7.91;83.53
51468;BME280;37545;45.302;-122.946;2023-04-15T08:28:50;101196.78;;;7.82;84.23
51468;BME280;37545;45.302;-122.946;2023-04-15T08:31:20;101196.59;;;7.79;84.83
51468;BME280;37545;45.302;-122.946;2023-04-15T08:33:50;101198.25;;;7.76;83.93
51468;BME280;37545;45.302;-122.946;2023-04-15T08:36:20;101199.03;;;7.75;84.89
51468;BME280;37545;45.302;-122.946;2023-04-15T08:38:48;101189.34;;;7.70;84.06
51468;BME280;37545;45.302;-122.946;2023-04-15T08:41:20;101197.13;;;7.71;83.86
51468;BME280;37545;45.302;-122.946;2023-04-15T08:43:55;101194.56;;;7.71;84.89
51468;BME280;37545;45.302;-122.946;2023-04-15T08:46:27;101191.84;;;7.68;84.02
51468;BME280;37545;45.302;-122.946;2023-04-15T08:48:57;101190.09;;;7.67;84.16
51468;BME280;37545;45.302;-122.946;2023-04-15T08:51:27;101199.44;;;7.65;84.68
51468;BME280;37545;45.302;-122.946;2023-04-15T08:53:57;101200.22;;;7.64;85.34
51468;BME280;37545;45.302;-122.946;2023-04-15T08:56:25;101205.97;;;7.59;86.68
51468;BME280;37545;45.302;-122.946;2023-04-15T08:58:55;101205.75;;;7.54;86.10
51468;BME280;37545;45.302;-122.946;2023-04-15T09:01:26;101211.53;;;7.50;86.04
51468;BME280;37545;45.302;-122.946;2023-04-15T09:03:56;101205.06;;;7.40;85.98
51468;BME280;37545;45.302;-122.946;2023-04-15T09:06:25;101206.97;;;7.26;86.67
51468;BME280;37545;45.302;-122.946;2023-04-15T09:08:53;101204.72;;;7.16;87.00
51468;BME280;37545;45.302;-122.946;2023-04-15T09:11:23;101212.94;;;7.09;88.87
51468;BME280;37545;45.302;-122.946;2023-04-15T09:13:52;101208.44;;;7.05;89.69
51468;BME280;37545;45.302;-122.946;2023-04-15T09:16:20;101219.78;;;7.08;89.65
51468;BME280;37545;45.302;-122.946;2023-04-15T09:18:51;101220.00;;;7.13;89.32
51468;BME280;37545;45.302;-122.946;2023-04-15T09:21:20;101215.00;;;7.16;88.81
51468;BME280;37545;45.302;-122.946;2023-04-15T09:23:56;101215.00;;;7.16;88.28
51468;BME280;37545;45.302;-122.946;2023-04-15T09:26:32;101216.78;;;7.17;88.46
51468;BME280;37545;45.302;-122.946;2023-04-15T09:29:05;101222.81;;;7.18;88.02
51468;BME280;37545;45.302;-122.946;2023-04-15T09:31:34;101225.44;;;7.19;87.65
51468;BME280;37545;45.302;-122.946;2023-04-15T09:34:05;101230.69;;;7.21;87.15
51468;BME280;37545;45.302;-122.946;2023-04-15T09:36:52;101224.75;;;7.22;87.01
51468;BME280;37545;45.302;-122.946;2023-04-15T09:39:21;101225.63;;;7.22;88.18
51468;BME280;37545;45.302;-122.946;2023-04-15T09:42:07;101228.09;;;7.21;87.20
51468;BME280;37545;45.302;-122.946;2023-04-15T09:44:37;101225.44;;;7.19;87.67
51468;BME280;37545;45.302;-122.946;2023-04-15T09:47:05;101225.31;;;7.16;87.71
51468;BME280;37545;45.302;-122.946;2023-04-15T09:49:35;101221.63;;;7.11;87.12
51468;BME280;37545;45.302;-122.946;2023-04-15T09:52:04;101224.75;;;7.05;88.57
51468;BME280;37545;45.302;-122.946;2023-04-15T09:54:44;101225.19;;;6.97;89.18
51468;BME280;37545;45.302;-122.946;2023-04-15T09:57:13;101228.31;;;6.91;90.29
51468;BME280;37545;45.302;-122.946;2023-04-15T09:59:42;101232.25;;;6.84;90.43
51468;BME280;37545;45.302;-122.946;2023-04-15T10:02:11;101226.81;;;6.78;90.55
51468;BME280;37545;45.302;-122.946;2023-04-15T10:04:43;101225.34;;;6.67;90.16
51468;BME280;37545;45.302;-122.946;2023-04-15T10:07:12;101232.59;;;6.74;90.96
51468;BME280;37545;45.302;-122.946;2023-04-15T10:09:41;101226.47;;;6.72;91.30
51468;BME280;37545;45.302;-122.946;2023-04-15T10:12:18;101233.84;;;6.82;90.28
51468;BME280;37545;45.302;-122.946;2023-04-15T10:14:57;101243.34;;;6.83;89.14
51468;BME280;37545;45.302;-122.946;2023-04-15T10:17:27;101246.72;;;6.82;88.22
51468;BME280;37545;45.302;-122.946;2023-04-15T10:20:01;101251.31;;;6.71;90.55
51468;BME280;37545;45.302;-122.946;2023-04-15T10:22:31;101247.44;;;6.63;90.32
51468;BME280;37545;45.302;-122.946;2023-04-15T10:25:01;101232.16;;;6.50;91.20
51468;BME280;37545;45.302;-122.946;2023-04-15T10:27:30;101256.84;;;6.63;91.09
51468;BME280;37545;45.302;-122.946;2023-04-15T10:30:00;101258.59;;;6.64;90.75
51468;BME280;37545;45.302;-122.946;2023-04-15T10:32:30;101254.19;;;6.61;90.65
51468;BME280;37545;45.302;-122.946;2023-04-15T10:35:01;101251.31;;;6.55;91.87
51468;BME280;37545;45.302;-122.946;2023-04-15T10:37:34;101263.72;;;6.47;91.63
51468;BME280;37545;45.302;-122.946;2023-04-15T10:42:49;101271.56;;;6.34;91.70
51468;BME280;37545;45.302;-122.946;2023-04-15T10:45:18;101270.59;;;6.32;91.42
51468;BME280;37545;45.302;-122.946;2023-04-15T10:47:51;101280.09;;;6.33;91.17
51468;BME280;37545;45.302;-122.946;2023-04-15T10:50:25;101281.06;;;6.35;90.56
51468;BME280;37545;45.302;-122.946;2023-04-15T10:52:56;101267.88;;;6.29;90.16
51468;BME280;37545;45.302;-122.946;2023-04-15T10:55:25;101279.47;;;6.37;90.28
51468;BME280;37545;45.302;-122.946;2023-04-15T10:57:57;101286.34;;;6.38;90.55
51468;BME280;37545;45.302;-122.946;2023-04-15T11:00:29;101286.25;;;6.37;90.04
51468;BME280;37545;45.302;-122.946;2023-04-15T11:02:59;101287.91;;;6.35;90.34
51468;BME280;37545;45.302;-122.946;2023-04-15T11:06:00;101285.13;;;6.32;89.71
51468;BME280;37545;45.302;-122.946;2023-04-15T11:08:53;101273.81;;;6.28;90.28
51468;BME280;37545;45.302;-122.946;2023-04-15T11:11:22;101276.28;;;6.26;90.62
51468;BME280;37545;45.302;-122.946;2023-04-15T11:13:51;101265.84;;;6.23;90.84
51468;BME280;37545;45.302;-122.946;2023-04-15T11:16:20;101279.59;;;6.24;91.18
51468;BME280;37545;45.302;-122.946;2023-04-15T11:18:55;101279.50;;;6.22;91.56
51468;BME280;37545;45.302;-122.946;2023-04-15T11:21:26;101279.50;;;6.22;92.03
51468;BME280;37545;45.302;-122.946;2023-04-15T11:23:54;101281.19;;;6.22;91.63
51468;BME280;37545;45.302;-122.946;2023-04-15T11:26:25;101276.03;;;6.22;91.51
51468;BME280;37545;45.302;-122.946;2023-04-15T11:28:54;101277.72;;;6.21;92.02
51468;BME280;37545;45.302;-122.946;2023-04-15T11:31:26;101279.34;;;6.19;92.06
51468;BME280;37545;45.302;-122.946;2023-04-15T11:33:57;101280.13;;;6.18;92.07
51468;BME280;37545;45.302;-122.946;2023-04-15T11:36:29;101279.25;;;6.18;91.75
51468;BME280;37545;45.302;-122.946;2023-04-15T11:38:58;101280.06;;;6.17;90.57
51468;BME280;37545;45.302;-122.946;2023-04-15T11:41:27;101277.94;;;6.10;91.06
51468;BME280;37545;45.302;-122.946;2023-04-15T11:43:56;101277.22;;;5.97;93.41
51468;BME280;37545;45.302;-122.946;2023-04-15T11:46:29;101281.03;;;5.89;94.85
51468;BME280;37545;45.302;-122.946;2023-04-15T11:48:58;101279.88;;;5.84;95.47
51468;BME280;37545;45.302;-122.946;2023-04-15T11:51:32;101276.34;;;5.82;94.64
51468;BME280;37545;45.302;-122.946;2023-04-15T11:54:01;101278.13;;;5.83;94.72
51468;BME280;37545;45.302;-122.946;2023-04-15T11:56:29;101278.13;;;5.83;94.02
51468;BME280;37545;45.302;-122.946;2023-04-15T11:58:58;101280.69;;;5.83;94.04
51468;BME280;37545;45.302;-122.946;2023-04-15T12:01:33;101279.09;;;5.85;93.80
51468;BME280;37545;45.302;-122.946;2023-04-15T12:04:10;101278.38;;;5.87;93.56
51468;BME280;37545;45.302;-122.946;2023-04-15T12:06:40;101279.25;;;5.88;94.30
51468;BME280;37545;45.302;-122.946;2023-04-15T12:09:10;101281.03;;;5.89;94.44
51468;BME280;37545;45.302;-122.946;2023-04-15T12:11:41;101292.91;;;5.87;95.02
51468;BME280;37545;45.302;-122.946;2023-04-15T12:14:11;101291.13;;;5.86;95.48
51468;BME280;37545;45.302;-122.946;2023-04-15T12:16:42;101303.97;;;5.86;94.94
51468;BME280;37545;45.302;-122.946;2023-04-15T12:19:13;101297.94;;;5.85;95.38
51468;BME280;37545;45.302;-122.946;2023-04-15T12:21:45;101297.22;;;5.88;95.52
51468;BME280;37545;45.302;-122.946;2023-04-15T12:24:14;101303.25;;;5.88;94.90
51468;BME280;37545;45.302;-122.946;2023-04-15T12:26:47;101311.03;;;5.90;95.45
51468;BME280;37545;45.302;-122.946;2023-04-15T12:29:16;101311.16;;;5.92;95.20
51468;BME280;37545;45.302;-122.946;2023-04-15T12:31:52;101302.31;;;5.86;94.65
51468;BME280;37545;45.302;-122.946;2023-04-15T12:34:28;101314.69;;;5.94;94.25
51468;BME280;37545;45.302;-122.946;2023-04-15T12:36:59;101314.78;;;5.95;94.87
51468;BME280;37545;45.302;-122.946;2023-04-15T12:39:29;101320.03;;;5.97;95.64
51468;BME280;37545;45.302;-122.946;2023-04-15T12:41:58;101320.03;;;5.97;95.55